Time;durP1;ratioP1;P1;durP2;ratioP2;P2;SDS_P1;SDS_P2;PMS_P1;PMS_P2;Temp;Humidity;BMP_temperature;BMP_pressure;BME280_temperature;BME280_humidity;BME280_pressure;Samples;Min_cycle;Max_cycle;Signal;HPM_P1;HPM_P2
2022/05/23 00:00:28;;;;;;;1.43;0.90;;;19.30;84.50;;;;;;5006381;28;20872;-80
2022/05/23 00:02:58;;;;;;;1.43;0.90;;;19.30;84.70;;;;;;4991713;28;20866;-79
2022/05/23 00:05:26;;;;;;;1.40;0.90;;;19.30;84.70;;;;;;5006577;28;20464;-79
2022/05/23 00:07:54;;;;;;;1.43;0.90;;;19.20;84.50;;;;;;5004617;28;20543;-78
2022/05/23 00:10:22;;;;;;;1.43;0.90;;;19.20;84.70;;;;;;5009065;28;20551;-79
2022/05/23 00:12:50;;;;;;;2.10;1.20;;;19.20;84.50;;;;;;4999771;28;20511;-79
2022/05/23 00:15:18;;;;;;;1.47;0.90;;;19.20;84.20;;;;;;4995539;28;21013;-81
2022/05/23 00:17:48;;;;;;;1.47;0.97;;;19.20;84.40;;;;;;5006766;28;20487;-79
2022/05/23 00:20:19;;;;;;;1.40;0.90;;;19.10;84.40;;;;;;5015727;28;21015;-78
2022/05/23 00:22:47;;;;;;;5.00;1.63;;;19.10;84.30;;;;;;4995397;28;20837;-79
2022/05/23 00:25:15;;;;;;;1.50;0.90;;;19.10;84.40;;;;;;5006221;28;20456;-79
2022/05/23 00:27:45;;;;;;;1.40;0.90;;;19.00;84.40;;;;;;4998841;28;20481;-78
2022/05/23 00:30:14;;;;;;;1.40;0.90;;;19.00;84.10;;;;;;4999932;28;20576;-80
2022/05/23 00:35:28;;;;;;;1.40;0.90;;;19.00;84.00;;;;;;4996240;28;20925;-80
2022/05/23 00:37:57;;;;;;;1.50;1.00;;;19.00;83.70;;;;;;5009604;28;20505;-78
2022/05/23 00:40:49;;;;;;;1.50;1.00;;;19.10;83.70;;;;;;5004853;28;20743;-79
2022/05/23 00:43:19;;;;;;;1.50;0.90;;;19.10;84.00;;;;;;4994786;28;20461;-78
2022/05/23 00:45:50;;;;;;;1.50;0.90;;;19.00;84.40;;;;;;4995931;28;20464;-80
2022/05/23 00:48:20;;;;;;;1.47;0.90;;;19.00;84.80;;;;;;5011429;28;20695;-79
2022/05/23 00:50:51;;;;;;;1.50;1.00;;;19.00;85.10;;;;;;5015019;28;20459;-78
2022/05/23 00:53:29;;;;;;;1.50;1.00;;;19.00;84.60;;;;;;4968663;28;20508;-78
2022/05/23 00:55:57;;;;;;;1.40;0.90;;;18.90;84.70;;;;;;4990370;28;20882;-80
2022/05/23 00:58:29;;;;;;;1.43;0.90;;;18.90;84.30;;;;;;5015222;28;20484;-79
2022/05/23 01:01:00;;;;;;;1.50;0.90;;;18.90;84.80;;;;;;4997010;28;20547;-78
2022/05/23 01:03:27;;;;;;;1.43;0.90;;;18.90;85.40;;;;;;4994171;28;20527;-78
2022/05/23 01:05:56;;;;;;;1.50;0.90;;;18.90;85.40;;;;;;4997346;28;20516;-80
2022/05/23 01:08:26;;;;;;;1.43;0.90;;;18.90;85.30;;;;;;5008465;28;20495;-79
2022/05/23 01:10:54;;;;;;;1.47;1.00;;;18.90;85.10;;;;;;5008221;28;20464;-78
2022/05/23 01:13:21;;;;;;;1.43;0.90;;;18.80;85.60;;;;;;4995497;28;20898;-79
2022/05/23 01:15:53;;;;;;;1.50;1.00;;;18.80;85.90;;;;;;4992974;28;20484;-79
2022/05/23 01:18:20;;;;;;;1.50;1.00;;;18.70;85.80;;;;;;4999499;28;20501;-77
2022/05/23 01:20:52;;;;;;;1.40;0.90;;;18.70;86.10;;;;;;5008934;28;20542;-81
2022/05/23 01:23:30;;;;;;;1.50;1.00;;;18.70;86.30;;;;;;4986735;28;20483;-79
2022/05/23 01:25:59;;;;;;;1.50;0.97;;;18.70;86.20;;;;;;4993686;28;20546;-78
2022/05/23 01:28:27;;;;;;;1.50;1.10;;;18.70;86.20;;;;;;5001562;28;20528;-82
2022/05/23 01:30:54;;;;;;;1.47;0.90;;;18.70;86.10;;;;;;4995544;28;20501;-80
2022/05/23 01:33:23;;;;;;;1.47;0.90;;;18.70;85.80;;;;;;4999650;28;20475;-80
2022/05/23 01:35:50;;;;;;;1.50;1.00;;;18.70;85.80;;;;;;5012315;28;20490;-78
2022/05/23 01:38:17;;;;;;;1.50;0.90;;;18.70;85.70;;;;;;5006078;28;20978;-78
2022/05/23 01:40:44;;;;;;;1.47;0.90;;;18.70;85.50;;;;;;4998787;28;20555;-77
2022/05/23 01:43:13;;;;;;;1.40;0.90;;;18.70;85.70;;;;;;5001522;28;20479;-78
2022/05/23 01:45:40;;;;;;;1.50;0.90;;;18.70;85.60;;;;;;4995379;28;20461;-79
2022/05/23 01:48:09;;;;;;;1.47;0.93;;;18.70;86.00;;;;;;4996125;28;20559;-79
2022/05/23 01:50:37;;;;;;;1.50;0.90;;;18.70;86.30;;;;;;5000315;28;20471;-79
2022/05/23 01:53:04;;;;;;;1.50;0.90;;;18.60;85.90;;;;;;4992111;28;20925;-79
2022/05/23 01:55:32;;;;;;;1.50;0.90;;;18.60;86.10;;;;;;5003828;28;20488;-79
2022/05/23 01:58:00;;;;;;;1.47;0.90;;;18.50;85.70;;;;;;5003221;28;20484;-80
2022/05/23 02:03:14;;;;;;;1.90;1.40;;;18.50;85.50;;;;;;4995053;28;20452;-79
2022/05/23 02:05:42;;;;;;;1.50;1.00;;;18.60;85.20;;;;;;4997024;28;20480;-80
2022/05/23 02:08:10;;;;;;;1.50;1.00;;;18.60;85.30;;;;;;4994358;28;20864;-80
2022/05/23 02:10:37;;;;;;;1.50;1.10;;;18.60;85.40;;;;;;4998417;28;20469;-78
2022/05/23 02:13:06;;;;;;;1.47;0.90;;;18.60;85.50;;;;;;4980608;28;20544;-79
2022/05/23 02:15:35;;;;;;;1.47;0.90;;;18.50;85.80;;;;;;4995511;28;20499;-80
2022/05/23 02:18:05;;;;;;;1.47;0.90;;;18.50;85.90;;;;;;4967723;28;20584;-79
2022/05/23 02:20:32;;;;;;;1.50;1.00;;;18.50;86.10;;;;;;5001157;28;20578;-78
2022/05/23 02:23:00;;;;;;;1.50;0.90;;;18.50;85.90;;;;;;4991798;28;20527;-81
2022/05/23 02:25:28;;;;;;;1.50;0.97;;;18.50;86.00;;;;;;5014895;28;20491;-79
2022/05/23 02:27:56;;;;;;;1.83;1.63;;;18.50;86.10;;;;;;5003478;28;20488;-79
2022/05/23 02:30:24;;;;;;;1.50;1.00;;;18.50;85.80;;;;;;5010715;28;20857;-79
2022/05/23 02:32:55;;;;;;;1.40;0.90;;;18.50;85.90;;;;;;5005955;28;21031;-80
2022/05/23 02:35:23;;;;;;;1.50;1.00;;;18.50;85.90;;;;;;5012596;28;20496;-79
2022/05/23 02:37:55;;;;;;;1.50;1.00;;;18.40;86.30;;;;;;5005770;28;20481;-79
2022/05/23 02:40:24;;;;;;;1.40;0.93;;;18.40;85.80;;;;;;5006869;28;20547;-82
2022/05/23 02:42:51;;;;;;;1.43;0.90;;;18.50;86.10;;;;;;4993902;28;20469;-81
2022/05/23 02:45:18;;;;;;;1.47;0.90;;;18.40;86.30;;;;;;4995618;28;20485;-80
2022/05/23 02:47:45;;;;;;;1.50;1.00;;;18.40;86.40;;;;;;4979452;28;20492;-79
2022/05/23 02:50:16;;;;;;;1.60;1.43;;;18.40;86.30;;;;;;4995881;28;20539;-79
2022/05/23 02:52:46;;;;;;;1.47;0.93;;;18.40;86.40;;;;;;5005288;28;20769;-79
2022/05/23 02:55:13;;;;;;;1.50;0.97;;;18.40;86.80;;;;;;5014582;28;20961;-79
2022/05/23 02:57:41;;;;;;;1.50;0.90;;;18.40;86.90;;;;;;4997699;28;20527;-79
2022/05/23 03:00:11;;;;;;;1.50;0.90;;;18.30;87.00;;;;;;5000859;28;20563;-78
2022/05/23 03:05:24;;;;;;;1.50;1.00;;;18.30;87.40;;;;;;4996418;28;20444;-77
2022/05/23 03:07:51;;;;;;;1.50;1.00;;;18.30;87.60;;;;;;4999920;28;20555;-80
2022/05/23 03:10:19;;;;;;;1.47;1.00;;;18.20;87.70;;;;;;5054577;22;20490;-80
2022/05/23 03:12:46;;;;;;;1.43;0.90;;;18.20;88.10;;;;;;5060070;28;20500;-80
2022/05/23 03:15:13;;;;;;;1.50;0.90;;;18.20;87.80;;;;;;5062409;28;20515;-78
2022/05/23 03:17:41;;;;;;;1.47;0.90;;;18.30;87.90;;;;;;5051396;28;20683;-77
2022/05/23 03:20:09;;;;;;;1.40;0.90;;;18.20;87.90;;;;;;5053297;28;20482;-77
2022/05/23 03:28:07;;;;;;;1.47;0.90;;;18.20;88.10;;;;;;5036738;28;20537;-78
2022/05/23 03:30:35;;;;;;;1.50;0.90;;;18.10;88.30;;;;;;5054378;28;20486;-78
2022/05/23 03:33:02;;;;;;;1.50;1.00;;;18.10;88.60;;;;;;5055552;28;20462;-78
2022/05/23 03:35:32;;;;;;;1.50;1.00;;;18.10;88.80;;;;;;5052002;28;20471;-78
2022/05/23 03:38:01;;;;;;;1.47;0.90;;;18.10;89.00;;;;;;5057603;28;20473;-78
2022/05/23 03:40:28;;;;;;;1.50;1.10;;;18.10;88.90;;;;;;5039968;28;21185;-78
2022/05/23 03:42:55;;;;;;;1.43;0.90;;;18.10;89.00;;;;;;5051543;28;20462;-78
2022/05/23 03:45:23;;;;;;;1.50;1.00;;;18.10;89.20;;;;;;5054988;28;20459;-78
2022/05/23 03:47:51;;;;;;;1.50;0.97;;;18.00;89.00;;;;;;5050300;28;20455;-77
2022/05/23 03:50:18;;;;;;;1.50;0.90;;;18.10;88.60;;;;;;5041038;28;20489;-77
2022/05/23 03:52:45;;;;;;;3.50;1.60;;;18.10;88.40;;;;;;5025699;28;21052;-77
2022/05/23 03:55:14;;;;;;;1.47;1.00;;;18.10;88.40;;;;;;5049183;28;20516;-77
2022/05/23 03:57:41;;;;;;;1.50;1.00;;;18.10;88.20;;;;;;5046372;28;20491;-78
2022/05/23 04:00:12;;;;;;;1.50;0.97;;;18.10;88.10;;;;;;5050313;28;21178;-78
2022/05/23 04:02:39;;;;;;;1.50;0.90;;;18.20;87.80;;;;;;5052727;28;20466;-79
2022/05/23 04:05:07;;;;;;;1.47;0.93;;;18.20;87.50;;;;;;5052892;28;20507;-77
2022/05/23 04:07:38;;;;;;;1.50;0.97;;;18.20;87.10;;;;;;5043094;28;20462;-78
2022/05/23 04:10:07;;;;;;;1.50;1.10;;;18.30;87.00;;;;;;5044300;28;20502;-77
2022/05/23 04:12:36;;;;;;;1.50;1.00;;;18.30;86.70;;;;;;5051324;28;20466;-78
2022/05/23 04:15:03;;;;;;;1.43;0.90;;;18.30;86.50;;;;;;5056903;28;20512;-85
2022/05/23 04:17:31;;;;;;;1.50;0.90;;;18.30;86.60;;;;;;5055704;28;20514;-82
2022/05/23 04:19:58;;;;;;;1.43;0.90;;;18.30;86.50;;;;;;5061726;28;20692;-81
2022/05/23 04:22:25;;;;;;;1.43;0.90;;;18.30;86.50;;;;;;5058177;28;20614;-82
2022/05/23 04:24:52;;;;;;;1.40;1.00;;;18.40;86.40;;;;;;5057437;28;20511;-81
2022/05/23 04:27:19;;;;;;;1.43;0.90;;;18.40;86.60;;;;;;5054877;28;20478;-81
2022/05/23 04:29:47;;;;;;;1.47;0.90;;;18.40;86.30;;;;;;5055837;28;20508;-80
2022/05/23 04:37:50;;;;;;;1.50;0.90;;;18.50;86.10;;;;;;5045748;28;20482;-77
2022/05/23 04:40:20;;;;;;;1.50;0.97;;;18.50;86.30;;;;;;5041438;28;20485;-80
2022/05/23 04:42:48;;;;;;;1.43;0.90;;;18.50;86.10;;;;;;5050591;28;20458;-79
2022/05/23 04:45:18;;;;;;;1.50;0.90;;;18.50;86.00;;;;;;5053524;28;20517;-78
2022/05/23 04:50:29;;;;;;;1.50;0.90;;;18.50;86.00;;;;;;5051775;28;20464;-78
2022/05/23 04:52:57;;;;;;;1.47;0.90;;;18.60;85.90;;;;;;5048057;28;20482;-77
2022/05/23 04:55:25;;;;;;;1.50;1.00;;;18.60;85.90;;;;;;5049491;28;20471;-78
2022/05/23 04:57:53;;;;;;;1.50;1.00;;;18.60;86.00;;;;;;5044994;28;20521;-77
2022/05/23 05:00:23;;;;;;;1.40;0.90;;;18.60;86.00;;;;;;5048252;28;20521;-79
2022/05/23 05:02:51;;;;;;;1.47;0.90;;;18.70;86.30;;;;;;5042916;28;20554;-78
2022/05/23 05:05:19;;;;;;;1.40;0.90;;;18.70;85.90;;;;;;5045957;28;20463;-78
2022/05/23 05:07:46;;;;;;;1.50;1.10;;;18.70;85.80;;;;;;5043537;28;20510;-78
2022/05/23 05:10:13;;;;;;;1.43;0.90;;;18.70;85.40;;;;;;5045335;28;20577;-78
2022/05/23 05:12:40;;;;;;;1.50;1.00;;;18.70;85.20;;;;;;5043750;28;20507;-78
2022/05/23 05:15:09;;;;;;;1.50;1.13;;;18.70;85.20;;;;;;5049236;28;20917;-78
2022/05/23 05:17:37;;;;;;;1.43;0.90;;;18.70;85.40;;;;;;5016345;28;20483;-78
2022/05/23 05:20:05;;;;;;;1.50;0.90;;;18.70;85.50;;;;;;5021316;28;20496;-78
2022/05/23 05:22:32;;;;;;;1.50;0.90;;;18.70;85.50;;;;;;5024433;28;21034;-79
2022/05/23 05:24:59;;;;;;;1.40;1.00;;;18.70;85.50;;;;;;5026333;28;20501;-78
2022/05/23 05:27:26;;;;;;;1.50;1.07;;;18.70;85.60;;;;;;5026784;28;21018;-77
2022/05/23 05:29:53;;;;;;;1.40;0.90;;;18.80;86.00;;;;;;5021263;28;20487;-77
2022/05/23 05:32:26;;;;;;;1.40;0.90;;;18.80;86.00;;;;;;5017527;28;20467;-78
2022/05/23 05:35:00;;;;;;;1.50;1.00;;;18.80;86.10;;;;;;5018403;28;20486;-79
2022/05/23 05:37:31;;;;;;;1.43;0.90;;;18.80;86.20;;;;;;5015827;28;20522;-76
2022/05/23 05:40:03;;;;;;;1.50;0.90;;;18.90;86.00;;;;;;5019432;28;21064;-77
2022/05/23 05:42:35;;;;;;;1.50;1.00;;;18.90;85.80;;;;;;5021410;28;20864;-78
2022/05/23 05:45:07;;;;;;;1.50;1.00;;;19.00;85.60;;;;;;5022706;28;20479;-78
2022/05/23 05:47:39;;;;;;;1.43;0.90;;;19.00;85.70;;;;;;5027532;28;20548;-78
2022/05/23 05:50:13;;;;;;;1.47;1.00;;;19.10;85.30;;;;;;5027761;28;21029;-77
2022/05/23 05:52:40;;;;;;;1.47;0.90;;;19.10;85.40;;;;;;5023085;28;20491;-78
2022/05/23 05:55:09;;;;;;;1.80;1.43;;;19.10;85.20;;;;;;5030015;28;20975;-77
2022/05/23 05:57:36;;;;;;;1.43;0.90;;;19.10;85.40;;;;;;5023955;28;20991;-78
2022/05/23 06:00:04;;;;;;;1.43;0.90;;;19.10;85.50;;;;;;5027098;28;20593;-78
2022/05/23 06:02:31;;;;;;;1.47;0.90;;;19.20;85.80;;;;;;5023740;28;20831;-78
2022/05/23 06:04:58;;;;;;;1.40;0.90;;;19.20;85.50;;;;;;5025801;28;20491;-78
2022/05/23 06:13:01;;;;;;;1.47;0.90;;;19.40;85.00;;;;;;5021882;28;20849;-78
2022/05/23 06:15:28;;;;;;;1.47;0.90;;;19.40;84.70;;;;;;5027939;28;20550;-78
2022/05/23 06:17:55;;;;;;;1.60;1.20;;;19.40;84.70;;;;;;5027794;28;20498;-77
2022/05/23 06:20:23;;;;;;;1.43;0.87;;;19.40;84.70;;;;;;5026643;28;20517;-77
2022/05/23 06:22:52;;;;;;;1.43;0.90;;;19.40;84.20;;;;;;5027842;28;20487;-78
2022/05/23 06:25:19;;;;;;;1.47;0.90;;;19.50;84.50;;;;;;5031991;28;20525;-78
2022/05/23 06:27:46;;;;;;;1.43;0.90;;;19.50;84.10;;;;;;5021750;28;20527;-77
2022/05/23 06:30:15;;;;;;;1.47;0.87;;;19.60;84.10;;;;;;5027353;28;20487;-78
2022/05/23 06:32:42;;;;;;;1.40;0.90;;;19.70;84.00;;;;;;5011476;28;20481;-77
2022/05/23 06:35:10;;;;;;;1.47;0.90;;;19.80;83.80;;;;;;5024239;28;20529;-77
2022/05/23 06:37:38;;;;;;;1.50;1.00;;;19.80;83.30;;;;;;5020439;28;20483;-77
2022/05/23 06:40:10;;;;;;;1.50;1.00;;;19.80;83.30;;;;;;5027046;28;20507;-77
2022/05/23 06:42:37;;;;;;;1.47;0.90;;;19.80;83.60;;;;;;5004014;28;20483;-76
2022/05/23 06:45:07;;;;;;;1.47;0.90;;;19.80;83.30;;;;;;5024157;28;20701;-78
2022/05/23 06:47:34;;;;;;;1.43;0.90;;;19.90;83.30;;;;;;5027163;28;20833;-77
2022/05/23 06:50:01;;;;;;;1.47;0.90;;;20.00;83.50;;;;;;5027471;28;20498;-76
2022/05/23 06:52:28;;;;;;;1.50;0.90;;;20.10;83.10;;;;;;5013513;28;21185;-76
2022/05/23 06:54:54;;;;;;;1.50;0.90;;;20.10;83.20;;;;;;5028903;28;20566;-75
2022/05/23 06:57:23;;;;;;;1.50;1.00;;;20.20;83.20;;;;;;5025001;28;20478;-76
2022/05/23 06:59:50;;;;;;;1.47;0.90;;;20.30;83.20;;;;;;5027766;28;21199;-76
2022/05/23 07:02:17;;;;;;;1.47;0.90;;;20.30;82.50;;;;;;5026079;28;20542;-77
2022/05/23 07:12:58;;;;;;;1.43;0.90;;;20.50;81.80;;;;;;5026551;28;20482;-76
2022/05/23 07:15:27;;;;;;;1.43;0.83;;;20.50;80.90;;;;;;5028465;28;20471;-77
2022/05/23 07:17:54;;;;;;;1.50;0.90;;;20.50;81.10;;;;;;5027535;28;20483;-77
2022/05/23 07:20:21;;;;;;;1.47;0.90;;;20.40;81.10;;;;;;5021185;28;20522;-78
2022/05/23 07:22:48;;;;;;;1.47;0.90;;;20.40;81.60;;;;;;5021816;28;20521;-78
2022/05/23 07:25:15;;;;;;;1.50;1.00;;;20.40;82.00;;;;;;5027695;28;20711;-77
2022/05/23 07:27:42;;;;;;;1.47;0.90;;;20.40;82.10;;;;;;5027280;28;20463;-75
2022/05/23 07:30:12;;;;;;;1.47;0.90;;;20.50;82.10;;;;;;5026728;28;20691;-75
2022/05/23 07:32:39;;;;;;;1.47;0.90;;;20.50;81.80;;;;;;5022238;28;20468;-76
2022/05/23 07:35:09;;;;;;;1.47;0.90;;;20.60;81.60;;;;;;5027741;28;20470;-77
2022/05/23 07:37:36;;;;;;;1.50;0.90;;;20.60;81.90;;;;;;5029871;28;20513;-77
2022/05/23 07:40:04;;;;;;;1.47;0.90;;;20.80;81.80;;;;;;5022494;28;21053;-77
2022/05/23 07:42:31;;;;;;;1.50;0.90;;;20.80;81.30;;;;;;5024062;28;20542;-77
2022/05/23 07:44:58;;;;;;;1.43;0.90;;;20.80;81.50;;;;;;5026693;28;20921;-77
2022/05/23 07:47:26;;;;;;;1.60;1.40;;;21.00;81.50;;;;;;5004586;28;20567;-76
2022/05/23 07:49:53;;;;;;;1.47;0.90;;;21.00;81.00;;;;;;5017514;28;20902;-78
2022/05/23 07:52:20;;;;;;;1.43;0.90;;;21.00;81.00;;;;;;5014294;28;20526;-77
2022/05/23 08:00:34;;;;;;;1.50;0.90;;;21.00;81.40;;;;;;4986098;28;20483;-77
2022/05/23 08:03:16;;;;;;;1.43;0.90;;;21.10;81.30;;;;;;5006236;28;20583;-77
2022/05/23 08:05:43;;;;;;;1.50;0.90;;;21.20;81.10;;;;;;5025474;28;20471;-77
2022/05/23 08:08:10;;;;;;;1.47;0.90;;;21.30;80.70;;;;;;5028709;28;20475;-77
2022/05/23 08:10:39;;;;;;;1.50;0.90;;;21.20;80.70;;;;;;5027726;28;20491;-77
2022/05/23 08:13:09;;;;;;;1.43;0.90;;;21.20;80.80;;;;;;5029214;28;20471;-77
2022/05/23 08:15:38;;;;;;;1.50;0.90;;;21.10;80.80;;;;;;5028713;28;20483;-77
2022/05/23 08:18:07;;;;;;;1.50;1.00;;;21.10;81.60;;;;;;5025110;28;20519;-77
2022/05/23 08:20:36;;;;;;;1.50;0.90;;;21.30;82.50;;;;;;5019993;28;20565;-77
2022/05/23 08:23:04;;;;;;;1.50;1.00;;;21.70;81.30;;;;;;5025294;28;20533;-76
2022/05/23 08:25:31;;;;;;;1.50;0.90;;;22.00;79.90;;;;;;5029932;28;20474;-76
2022/05/23 08:27:58;;;;;;;1.50;0.90;;;22.20;79.50;;;;;;5027125;28;20562;-75
2022/05/23 08:30:25;;;;;;;1.50;0.90;;;22.20;79.30;;;;;;5026651;28;20483;-76
2022/05/23 08:32:52;;;;;;;1.43;0.90;;;22.20;79.20;;;;;;5025170;28;20844;-76
2022/05/23 08:35:21;;;;;;;1.50;0.83;;;22.10;79.20;;;;;;5030392;28;20463;-77
2022/05/23 08:37:48;;;;;;;1.50;0.90;;;21.90;79.80;;;;;;5034148;28;20484;-77
2022/05/23 08:40:15;;;;;;;1.50;0.93;;;22.00;80.20;;;;;;5028404;28;20490;-78
2022/05/23 08:42:56;;;;;;;1.47;0.90;;;22.20;80.30;;;;;;5016956;28;20491;-76
2022/05/23 08:45:26;;;;;;;1.50;0.90;;;22.30;79.20;;;;;;5030326;28;20463;-76
2022/05/23 08:48:04;;;;;;;1.40;0.80;;;22.40;79.60;;;;;;5029627;28;20892;-76
2022/05/23 08:50:44;;;;;;;1.50;0.90;;;22.50;79.30;;;;;;5028349;28;20552;-77
2022/05/23 08:53:15;;;;;;;1.47;0.90;;;22.60;79.30;;;;;;5011756;28;20490;-77
2022/05/23 08:55:46;;;;;;;1.50;1.00;;;22.40;79.10;;;;;;5029475;28;20636;-75
2022/05/23 08:58:19;;;;;;;1.50;1.20;;;22.50;79.70;;;;;;5023425;28;20536;-76
2022/05/23 09:00:48;;;;;;;1.47;0.90;;;22.50;80.10;;;;;;5018419;28;20521;-77
2022/05/23 09:03:22;;;;;;;1.50;0.90;;;23.00;79.10;;;;;;5024245;28;20467;-77
2022/05/23 09:05:55;;;;;;;1.43;0.80;;;23.40;79.20;;;;;;5025800;28;20459;-77
2022/05/23 09:08:25;;;;;;;1.47;0.90;;;23.90;77.60;;;;;;5021125;28;20467;-77
2022/05/23 09:10:58;;;;;;;1.60;1.30;;;24.10;76.20;;;;;;5026435;28;20526;-79
2022/05/23 09:13:27;;;;;;;1.47;0.90;;;24.10;76.20;;;;;;5030410;28;20478;-78
2022/05/23 09:15:59;;;;;;;1.47;0.90;;;24.10;76.30;;;;;;5032063;28;20739;-80
2022/05/23 09:18:36;;;;;;;2.53;2.33;;;24.20;76.10;;;;;;5033500;28;20498;-78
2022/05/23 09:21:05;;;;;;;1.47;0.90;;;24.30;76.50;;;;;;5026956;28;20486;-78
2022/05/23 09:23:39;;;;;;;1.50;0.90;;;24.40;76.60;;;;;;5033603;28;20463;-80
2022/05/23 09:26:14;;;;;;;1.50;1.10;;;24.70;75.20;;;;;;5029869;28;20463;-77
2022/05/23 09:28:41;;;;;;;1.47;0.90;;;24.80;74.70;;;;;;5029868;28;20642;-77
2022/05/23 09:31:17;;;;;;;1.50;0.90;;;24.90;75.40;;;;;;5025196;28;20485;-78
2022/05/23 09:33:47;;;;;;;1.47;0.90;;;25.20;74.80;;;;;;5028288;28;20556;-79
2022/05/23 09:36:20;;;;;;;1.43;0.90;;;25.30;74.40;;;;;;5024173;28;21553;-78
2022/05/23 09:38:55;;;;;;;1.43;0.87;;;25.10;74.50;;;;;;5022799;28;20479;-79
2022/05/23 09:47:44;;;;;;;1.47;0.90;;;25.00;75.10;;;;;;5026684;28;20517;-79
2022/05/23 09:49:51;;;;;;;1.50;1.00;;;24.80;76.10;;;;;;5031203;28;20467;-79
2022/05/23 09:52:27;;;;;;;1.50;0.80;;;24.90;75.70;;;;;;5026219;28;20609;-78
2022/05/23 09:54:58;;;;;;;1.40;0.80;;;25.00;75.90;;;;;;5032160;28;20467;-78
2022/05/23 09:57:28;;;;;;;1.43;0.87;;;25.20;75.50;;;;;;5028095;28;20591;-78
2022/05/23 09:59:59;;;;;;;1.50;0.90;;;25.20;75.40;;;;;;5030711;28;20498;-78
2022/05/23 10:02:39;;;;;;;1.50;0.90;;;25.30;75.20;;;;;;5024439;28;20470;-79
2022/05/23 10:05:11;;;;;;;1.43;0.80;;;25.50;75.10;;;;;;5031661;28;20613;-78
2022/05/23 10:07:39;;;;;;;1.50;1.10;;;25.50;75.00;;;;;;5026863;28;20471;-78
2022/05/23 10:10:20;;;;;;;1.50;0.80;;;25.50;74.50;;;;;;5027136;28;20923;-77
2022/05/23 10:12:48;;;;;;;1.50;0.80;;;25.30;75.00;;;;;;5024711;28;21029;-79
2022/05/23 10:15:21;;;;;;;1.50;0.90;;;25.20;75.50;;;;;;5028829;28;20460;-78
2022/05/23 10:18:01;;;;;;;1.50;0.90;;;25.30;75.40;;;;;;5029388;28;20551;-77
2022/05/23 10:20:32;;;;;;;1.50;0.80;;;25.20;74.80;;;;;;5029402;28;20483;-76
2022/05/23 10:23:05;;;;;;;1.50;0.90;;;25.20;74.00;;;;;;5029889;28;20467;-77
2022/05/23 10:25:39;;;;;;;1.47;0.90;;;25.20;75.20;;;;;;5029994;28;20956;-79
2022/05/23 10:28:11;;;;;;;1.47;0.90;;;25.30;74.20;;;;;;5030208;28;20455;-78
2022/05/23 10:30:40;;;;;;;1.47;0.80;;;25.40;75.10;;;;;;5030119;28;20491;-78
2022/05/23 10:33:10;;;;;;;1.47;0.90;;;25.50;75.30;;;;;;5033756;28;21068;-78
2022/05/23 10:35:42;;;;;;;1.50;0.90;;;25.70;74.20;;;;;;5027449;28;20667;-78
2022/05/23 10:43:59;;;;;;;2.60;1.10;;;25.40;74.30;;;;;;5030125;28;20454;-76
2022/05/23 10:46:28;;;;;;;1.50;0.90;;;25.30;74.70;;;;;;5030182;28;20525;-79
2022/05/23 10:49:01;;;;;;;1.43;0.80;;;25.10;75.90;;;;;;5032406;28;20463;-80
2022/05/23 10:51:35;;;;;;;2.07;1.87;;;25.30;75.60;;;;;;5025058;28;21070;-79
2022/05/23 10:54:17;;;;;;;1.47;0.90;;;25.30;76.00;;;;;;5030955;28;20454;-79
2022/05/23 10:56:59;;;;;;;1.47;0.90;;;25.40;75.50;;;;;;5030445;28;20999;-78
2022/05/23 10:59:36;;;;;;;1.47;0.90;;;25.60;75.40;;;;;;5019765;28;20603;-79
2022/05/23 11:02:16;;;;;;;1.50;1.00;;;25.70;74.80;;;;;;5030129;28;20462;-79
2022/05/23 11:04:53;;;;;;;1.43;0.83;;;25.80;75.40;;;;;;5032089;28;20498;-79
2022/05/23 11:07:33;;;;;;;1.40;0.90;;;26.00;74.30;;;;;;5025700;28;20493;-79
2022/05/23 11:10:10;;;;;;;1.50;0.90;;;26.10;74.40;;;;;;5032424;28;20486;-78
2022/05/23 11:12:43;;;;;;;1.40;0.87;;;26.00;74.80;;;;;;5020751;28;20596;-79
2022/05/23 11:15:29;;;;;;;1.40;0.90;;;25.90;75.20;;;;;;5032238;28;20529;-78
2022/05/23 11:18:06;;;;;;;1.47;0.80;;;25.80;75.80;;;;;;5026766;28;20527;-79
2022/05/23 11:20:36;;;;;;;1.50;0.80;;;25.80;76.00;;;;;;5032093;28;20720;-79
2022/05/23 11:23:10;;;;;;;1.40;0.80;;;25.80;76.10;;;;;;5015035;28;20714;-79
2022/05/23 11:25:44;;;;;;;1.50;0.90;;;25.80;76.30;;;;;;5032943;28;20700;-79
2022/05/23 11:34:09;;;;;;;1.40;0.90;;;26.50;75.60;;;;;;5031807;28;20434;-79
2022/05/23 11:36:56;;;;;;;1.50;0.80;;;26.80;75.40;;;;;;5027090;28;20478;-78
2022/05/23 11:39:43;;;;;;;1.50;0.90;;;26.90;74.80;;;;;;5044824;28;20487;-78
2022/05/23 11:42:14;;;;;;;1.40;0.80;;;26.80;75.40;;;;;;5017797;28;20482;-79
2022/05/23 11:44:56;;;;;;;1.47;0.90;;;26.50;75.40;;;;;;5030777;28;20455;-77
2022/05/23 11:47:25;;;;;;;1.50;0.90;;;26.20;76.30;;;;;;5034426;28;20541;-79
2022/05/23 11:50:06;;;;;;;1.60;1.40;;;26.10;77.00;;;;;;5033789;28;20910;-79
2022/05/23 11:52:35;;;;;;;1.43;0.87;;;26.30;77.00;;;;;;5034165;28;20560;-79
2022/05/23 11:55:03;;;;;;;1.87;1.27;;;26.40;76.40;;;;;;5035657;28;20477;-79
2022/05/23 11:57:37;;;;;;;1.47;0.80;;;26.50;75.80;;;;;;5033299;28;20556;-79
2022/05/23 12:00:32;;;;;;;1.50;0.90;;;26.50;76.40;;;;;;5023365;28;20490;-77
2022/05/23 12:03:09;;;;;;;1.60;1.23;;;26.80;75.40;;;;;;5028772;28;20486;-78
2022/05/23 12:05:36;;;;;;;1.70;1.20;;;27.00;75.50;;;;;;5026731;28;20550;-78
2022/05/23 12:08:07;;;;;;;1.40;0.80;;;27.20;75.60;;;;;;5026056;28;20490;-78
2022/05/23 12:10:58;;;;;;;1.47;0.80;;;27.40;75.00;;;;;;5028457;28;20869;-78
2022/05/23 12:13:58;;;;;;;1.43;0.90;;;27.20;74.70;;;;;;5024286;28;20520;-79
2022/05/23 12:17:01;;;;;;;1.47;0.80;;;27.00;75.00;;;;;;5015460;28;20778;-77
2022/05/23 12:19:33;;;;;;;1.47;0.90;;;27.00;75.60;;;;;;5020509;28;20500;-79
2022/05/23 12:22:29;;;;;;;1.43;0.80;;;27.30;75.50;;;;;;5027566;28;20485;-79
2022/05/23 12:25:03;;;;;;;1.43;0.90;;;27.30;75.80;;;;;;4969521;28;20954;-78
2022/05/23 12:27:33;;;;;;;1.50;0.90;;;27.20;75.30;;;;;;5030024;28;20797;-78
2022/05/23 12:30:33;;;;;;;1.50;0.80;;;27.30;75.60;;;;;;5030697;28;20502;-78
2022/05/23 12:33:12;;;;;;;1.50;0.90;;;27.10;75.70;;;;;;5028978;28;21029;-78
2022/05/23 12:35:58;;;;;;;1.40;0.83;;;27.00;76.90;;;;;;5031299;28;20463;-78
2022/05/23 12:38:54;;;;;;;1.50;0.83;;;26.80;77.50;;;;;;5026027;28;20534;-78
2022/05/23 12:41:39;;;;;;;1.43;0.90;;;26.60;78.10;;;;;;5029093;28;20536;-78
2022/05/23 12:44:46;;;;;;;4.70;2.83;;;26.50;78.40;;;;;;5032207;28;20783;-78
2022/05/23 12:47:27;;;;;;;1.47;0.83;;;26.50;78.80;;;;;;5009432;28;20487;-78
2022/05/23 12:50:01;;;;;;;1.50;0.80;;;26.30;79.30;;;;;;5024995;28;21056;-78
2022/05/23 12:52:44;;;;;;;1.50;0.90;;;26.20;79.80;;;;;;5013142;28;20566;-78
2022/05/23 12:55:34;;;;;;;1.47;0.80;;;26.20;79.90;;;;;;5033190;28;20467;-79
2022/05/23 12:58:20;;;;;;;2.47;2.27;;;26.20;79.70;;;;;;5027378;28;21005;-77
2022/05/23 13:00:52;;;;;;;1.50;1.03;;;26.00;80.10;;;;;;5031925;28;20479;-79
2022/05/23 13:03:27;;;;;;;1.90;1.00;;;25.90;80.40;;;;;;5018103;28;20537;-77
2022/05/23 13:05:58;;;;;;;1.47;0.80;;;25.80;80.30;;;;;;5016320;28;20520;-79
2022/05/23 13:08:28;;;;;;;1.47;0.80;;;25.60;81.10;;;;;;5044382;28;20465;-78
2022/05/23 13:11:00;;;;;;;1.50;0.90;;;25.50;81.10;;;;;;5031132;28;20544;-79
2022/05/23 13:13:34;;;;;;;1.47;0.90;;;25.50;81.00;;;;;;5031075;28;20467;-78
2022/05/23 13:16:15;;;;;;;2.43;2.03;;;25.40;81.40;;;;;;5031374;28;20459;-78
2022/05/23 13:24:48;;;;;;;1.50;1.00;;;25.10;82.30;;;;;;5036162;28;20450;-78
2022/05/23 13:27:06;;;;;;;1.50;1.00;;;24.90;83.80;;;;;;5032739;28;20867;-76
2022/05/23 13:29:34;;;;;;;1.50;0.90;;;24.80;85.00;;;;;;5026965;28;20487;-76
2022/05/23 13:32:04;;;;;;;1.50;0.90;;;24.70;87.90;;;;;;5026313;28;20468;-76
2022/05/23 13:34:37;;;;;;;1.47;0.90;;;24.50;88.50;;;;;;5016126;28;20471;-77
2022/05/23 13:37:06;;;;;;;1.43;0.83;;;24.40;89.20;;;;;;5024065;28;20823;-77
2022/05/23 13:39:33;;;;;;;1.47;0.83;;;24.20;90.30;;;;;;5014414;28;20945;-76
2022/05/23 13:42:03;;;;;;;1.43;0.90;;;24.10;91.30;;;;;;5019659;28;20567;-76
2022/05/23 13:44:35;;;;;;;1.47;0.90;;;24.00;91.90;;;;;;5014634;28;20558;-75
2022/05/23 13:47:09;;;;;;;1.50;0.90;;;23.90;93.30;;;;;;5017812;28;20880;-74
2022/05/23 13:49:43;;;;;;;1.47;0.90;;;23.80;94.20;;;;;;5016087;28;20483;-75
2022/05/23 13:52:15;;;;;;;1.47;0.90;;;23.80;94.60;;;;;;5022500;28;20471;-74
2022/05/23 13:54:47;;;;;;;1.50;0.90;;;23.70;95.40;;;;;;5020666;28;20513;-75
2022/05/23 13:57:19;;;;;;;1.50;1.10;;;23.60;96.00;;;;;;5004494;28;20571;-75
2022/05/23 13:59:52;;;;;;;1.43;0.93;;;23.60;96.50;;;;;;5019507;28;20487;-75
2022/05/23 14:02:21;;;;;;;1.50;0.90;;;23.60;97.40;;;;;;5006118;28;20890;-75
2022/05/23 14:04:50;;;;;;;1.43;0.90;;;23.50;97.70;;;;;;5025687;28;20570;-74
2022/05/23 14:07:21;;;;;;;1.47;0.90;;;23.50;98.10;;;;;;5023207;28;21012;-75
2022/05/23 14:09:51;;;;;;;1.50;0.90;;;23.50;98.20;;;;;;5021236;28;20487;-75
2022/05/23 14:12:21;;;;;;;1.47;0.90;;;23.60;98.20;;;;;;5023889;28;20558;-74